sensor_id;sensor_type;location;lat;lon;timestamp;P1;durP1;ratioP1;P2;durP2;ratioP2
3101;SDS011;1561;42.666;23.392;2022-09-14T00:01:37;6.30;;;5.70;;
3101;SDS011;1561;42.666;23.392;2022-09-14T00:04:07;6.60;;;6.10;;
3101;SDS011;1561;42.666;23.392;2022-09-14T00:06:40;6.37;;;5.87;;
3101;SDS011;1561;42.666;23.392;2022-09-14T00:09:11;6.90;;;6.30;;
3101;SDS011;1561;42.666;23.392;2022-09-14T00:11:40;6.80;;;6.20;;
3101;SDS011;1561;42.666;23.392;2022-09-14T00:14:08;6.27;;;5.73;;
3101;SDS011;1561;42.666;23.392;2022-09-14T00:16:36;6.60;;;6.00;;
3101;SDS011;1561;42.666;23.392;2022-09-14T00:19:05;6.30;;;5.80;;
3101;SDS011;1561;42.666;23.392;2022-09-14T00:21:33;6.00;;;5.50;;
3101;SDS011;1561;42.666;23.392;2022-09-14T00:24:10;6.70;;;6.10;;
3101;SDS011;1561;42.666;23.392;2022-09-14T00:26:38;6.67;;;6.07;;
3101;SDS011;1561;42.666;23.392;2022-09-14T00:29:06;7.50;;;6.80;;
3101;SDS011;1561;42.666;23.392;2022-09-14T00:31:34;7.20;;;6.60;;
3101;SDS011;1561;42.666;23.392;2022-09-14T00:34:04;6.80;;;6.20;;
3101;SDS011;1561;42.666;23.392;2022-09-14T00:36:41;7.40;;;6.70;;
3101;SDS011;1561;42.666;23.392;2022-09-14T00:39:13;6.70;;;6.10;;
3101;SDS011;1561;42.666;23.392;2022-09-14T00:41:42;7.20;;;6.60;;
3101;SDS011;1561;42.666;23.392;2022-09-14T00:47:16;7.23;;;6.63;;
3101;SDS011;1561;42.666;23.392;2022-09-14T00:49:49;7.30;;;6.63;;
3101;SDS011;1561;42.666;23.392;2022-09-14T00:52:17;7.10;;;6.60;;
3101;SDS011;1561;42.666;23.392;2022-09-14T00:54:53;6.67;;;6.10;;
3101;SDS011;1561;42.666;23.392;2022-09-14T00:57:23;7.70;;;7.00;;
3101;SDS011;1561;42.666;23.392;2022-09-14T00:59:58;6.93;;;6.33;;
3101;SDS011;1561;42.666;23.392;2022-09-14T01:02:30;7.00;;;6.40;;
3101;SDS011;1561;42.666;23.392;2022-09-14T01:04:58;7.73;;;7.00;;
3101;SDS011;1561;42.666;23.392;2022-09-14T01:07:29;7.43;;;6.83;;
3101;SDS011;1561;42.666;23.392;2022-09-14T01:10:10;7.10;;;6.50;;
3101;SDS011;1561;42.666;23.392;2022-09-14T01:12:48;8.47;;;7.57;;
3101;SDS011;1561;42.666;23.392;2022-09-14T01:15:25;8.07;;;7.40;;
3101;SDS011;1561;42.666;23.392;2022-09-14T01:18:02;7.60;;;6.90;;
3101;SDS011;1561;42.666;23.392;2022-09-14T01:20:34;7.97;;;7.27;;
3101;SDS011;1561;42.666;23.392;2022-09-14T01:23:07;9.30;;;7.20;;
3101;SDS011;1561;42.666;23.392;2022-09-14T01:25:44;8.27;;;7.50;;
3101;SDS011;1561;42.666;23.392;2022-09-14T01:28:42;8.07;;;7.20;;
3101;SDS011;1561;42.666;23.392;2022-09-14T01:31:19;8.40;;;7.60;;
3101;SDS011;1561;42.666;23.392;2022-09-14T01:33:53;7.43;;;6.83;;
3101;SDS011;1561;42.666;23.392;2022-09-14T01:36:28;10.13;;;7.90;;
3101;SDS011;1561;42.666;23.392;2022-09-14T01:38:58;8.33;;;7.53;;
3101;SDS011;1561;42.666;23.392;2022-09-14T01:41:27;7.83;;;7.13;;
3101;SDS011;1561;42.666;23.392;2022-09-14T01:43:59;8.83;;;8.03;;
3101;SDS011;1561;42.666;23.392;2022-09-14T01:46:34;8.77;;;8.03;;
3101;SDS011;1561;42.666;23.392;2022-09-14T01:49:06;8.18;;;7.47;;
3101;SDS011;1561;42.666;23.392;2022-09-14T01:51:38;7.87;;;7.07;;
3101;SDS011;1561;42.666;23.392;2022-09-14T01:54:10;8.47;;;7.77;;
3101;SDS011;1561;42.666;23.392;2022-09-14T01:56:44;8.80;;;8.00;;
3101;SDS011;1561;42.666;23.392;2022-09-14T01:59:20;9.40;;;8.50;;
3101;SDS011;1561;42.666;23.392;2022-09-14T02:01:52;8.87;;;8.07;;
3101;SDS011;1561;42.666;23.392;2022-09-14T02:04:28;8.83;;;8.13;;
3101;SDS011;1561;42.666;23.392;2022-09-14T02:07:00;9.77;;;8.30;;
3101;SDS011;1561;42.666;23.392;2022-09-14T02:09:28;9.07;;;8.17;;
3101;SDS011;1561;42.666;23.392;2022-09-14T02:11:56;8.73;;;7.93;;
3101;SDS011;1561;42.666;23.392;2022-09-14T02:14:26;8.10;;;7.40;;
3101;SDS011;1561;42.666;23.392;2022-09-14T02:16:53;7.07;;;6.53;;
3101;SDS011;1561;42.666;23.392;2022-09-14T02:19:21;7.90;;;7.00;;
3101;SDS011;1561;42.666;23.392;2022-09-14T02:21:49;7.80;;;7.10;;
3101;SDS011;1561;42.666;23.392;2022-09-14T02:24:17;8.20;;;7.60;;
3101;SDS011;1561;42.666;23.392;2022-09-14T02:26:44;7.43;;;6.73;;
3101;SDS011;1561;42.666;23.392;2022-09-14T02:29:15;8.43;;;7.27;;
3101;SDS011;1561;42.666;23.392;2022-09-14T02:34:37;11.60;;;8.03;;
3101;SDS011;1561;42.666;23.392;2022-09-14T02:37:18;11.03;;;8.90;;
3101;SDS011;1561;42.666;23.392;2022-09-14T02:39:53;10.67;;;9.60;;
3101;SDS011;1561;42.666;23.392;2022-09-14T02:42:32;9.80;;;8.90;;
3101;SDS011;1561;42.666;23.392;2022-09-14T02:45:08;11.47;;;10.17;;
3101;SDS011;1561;42.666;23.392;2022-09-14T02:47:47;16.87;;;10.60;;
3101;SDS011;1561;42.666;23.392;2022-09-14T02:50:29;14.23;;;12.10;;
3101;SDS011;1561;42.666;23.392;2022-09-14T02:53:06;15.37;;;11.70;;
3101;SDS011;1561;42.666;23.392;2022-09-14T02:55:40;15.33;;;10.47;;
3101;SDS011;1561;42.666;23.392;2022-09-14T02:58:12;13.80;;;11.70;;
3101;SDS011;1561;42.666;23.392;2022-09-14T03:00:42;14.77;;;11.93;;
3101;SDS011;1561;42.666;23.392;2022-09-14T03:03:14;15.40;;;11.73;;
3101;SDS011;1561;42.666;23.392;2022-09-14T03:05:48;12.60;;;10.60;;
3101;SDS011;1561;42.666;23.392;2022-09-14T03:08:15;13.13;;;11.83;;
3101;SDS011;1561;42.666;23.392;2022-09-14T03:10:42;17.03;;;13.00;;
3101;SDS011;1561;42.666;23.392;2022-09-14T03:13:09;14.47;;;12.97;;
3101;SDS011;1561;42.666;23.392;2022-09-14T03:15:36;18.50;;;13.33;;
3101;SDS011;1561;42.666;23.392;2022-09-14T03:18:04;16.40;;;13.17;;
3101;SDS011;1561;42.666;23.392;2022-09-14T03:20:34;16.03;;;14.30;;
3101;SDS011;1561;42.666;23.392;2022-09-14T03:23:02;16.53;;;14.83;;
3101;SDS011;1561;42.666;23.392;2022-09-14T03:25:30;16.77;;;14.67;;
3101;SDS011;1561;42.666;23.392;2022-09-14T03:28:02;16.57;;;14.23;;
3101;SDS011;1561;42.666;23.392;2022-09-14T03:30:30;17.13;;;15.43;;
3101;SDS011;1561;42.666;23.392;2022-09-14T03:32:58;15.07;;;13.10;;
3101;SDS011;1561;42.666;23.392;2022-09-14T03:35:26;15.23;;;13.80;;
3101;SDS011;1561;42.666;23.392;2022-09-14T03:37:57;17.07;;;13.10;;
3101;SDS011;1561;42.666;23.392;2022-09-14T03:40:29;16.10;;;14.50;;
3101;SDS011;1561;42.666;23.392;2022-09-14T03:42:57;14.23;;;12.63;;
3101;SDS011;1561;42.666;23.392;2022-09-14T03:45:30;14.40;;;12.57;;
3101;SDS011;1561;42.666;23.392;2022-09-14T03:47:56;13.10;;;11.80;;
3101;SDS011;1561;42.666;23.392;2022-09-14T03:50:24;15.67;;;12.43;;
3101;SDS011;1561;42.666;23.392;2022-09-14T03:52:55;13.63;;;12.23;;
3101;SDS011;1561;42.666;23.392;2022-09-14T03:55:24;12.07;;;10.37;;
3101;SDS011;1561;42.666;23.392;2022-09-14T03:57:52;10.23;;;9.07;;
3101;SDS011;1561;42.666;23.392;2022-09-14T04:00:19;13.63;;;11.60;;
3101;SDS011;1561;42.666;23.392;2022-09-14T04:02:48;14.07;;;12.07;;
3101;SDS011;1561;42.666;23.392;2022-09-14T04:05:25;13.53;;;12.10;;
3101;SDS011;1561;42.666;23.392;2022-09-14T04:07:55;12.67;;;11.47;;
3101;SDS011;1561;42.666;23.392;2022-09-14T04:10:23;14.10;;;11.73;;
3101;SDS011;1561;42.666;23.392;2022-09-14T04:12:50;16.10;;;11.50;;
3101;SDS011;1561;42.666;23.392;2022-09-14T04:15:19;14.30;;;12.07;;
3101;SDS011;1561;42.666;23.392;2022-09-14T04:17:47;17.43;;;12.37;;
3101;SDS011;1561;42.666;23.392;2022-09-14T04:20:14;19.30;;;11.87;;
3101;SDS011;1561;42.666;23.392;2022-09-14T04:22:44;17.80;;;14.43;;
3101;SDS011;1561;42.666;23.392;2022-09-14T04:25:11;12.57;;;11.37;;
3101;SDS011;1561;42.666;23.392;2022-09-14T04:27:42;11.83;;;10.63;;
3101;SDS011;1561;42.666;23.392;2022-09-14T04:30:12;10.80;;;9.70;;
3101;SDS011;1561;42.666;23.392;2022-09-14T04:32:42;12.00;;;10.80;;
3101;SDS011;1561;42.666;23.392;2022-09-14T04:35:18;12.10;;;9.93;;
3101;SDS011;1561;42.666;23.392;2022-09-14T04:37:45;12.97;;;9.80;;
3101;SDS011;1561;42.666;23.392;2022-09-14T04:40:12;11.93;;;9.53;;
3101;SDS011;1561;42.666;23.392;2022-09-14T04:42:39;11.97;;;9.37;;
3101;SDS011;1561;42.666;23.392;2022-09-14T04:45:08;11.33;;;9.73;;
3101;SDS011;1561;42.666;23.392;2022-09-14T04:47:36;14.87;;;10.70;;
3101;SDS011;1561;42.666;23.392;2022-09-14T04:50:07;12.40;;;9.63;;
3101;SDS011;1561;42.666;23.392;2022-09-14T04:52:35;10.33;;;9.23;;
3101;SDS011;1561;42.666;23.392;2022-09-14T04:55:03;13.63;;;11.60;;
3101;SDS011;1561;42.666;23.392;2022-09-14T04:57:45;11.20;;;10.03;;
3101;SDS011;1561;42.666;23.392;2022-09-14T05:00:37;12.43;;;9.70;;
3101;SDS011;1561;42.666;23.392;2022-09-14T05:03:06;11.80;;;10.57;;
3101;SDS011;1561;42.666;23.392;2022-09-14T05:05:34;11.47;;;10.10;;
3101;SDS011;1561;42.666;23.392;2022-09-14T05:08:02;11.27;;;9.67;;
3101;SDS011;1561;42.666;23.392;2022-09-14T05:10:29;15.03;;;11.03;;
3101;SDS011;1561;42.666;23.392;2022-09-14T05:12:56;16.47;;;10.80;;
3101;SDS011;1561;42.666;23.392;2022-09-14T05:15:28;12.27;;;10.20;;
3101;SDS011;1561;42.666;23.392;2022-09-14T05:18:04;13.47;;;9.50;;
3101;SDS011;1561;42.666;23.392;2022-09-14T05:20:34;12.73;;;9.87;;
3101;SDS011;1561;42.666;23.392;2022-09-14T05:23:03;12.20;;;9.87;;
3101;SDS011;1561;42.666;23.392;2022-09-14T05:25:33;42.90;;;31.42;;
3101;SDS011;1561;42.666;23.392;2022-09-14T05:28:01;11.73;;;10.45;;
3101;SDS011;1561;42.666;23.392;2022-09-14T05:30:33;11.65;;;9.85;;
3101;SDS011;1561;42.666;23.392;2022-09-14T05:33:14;14.73;;;9.30;;
3101;SDS011;1561;42.666;23.392;2022-09-14T05:35:44;15.68;;;10.98;;
3101;SDS011;1561;42.666;23.392;2022-09-14T05:38:13;16.02;;;9.40;;
3101;SDS011;1561;42.666;23.392;2022-09-14T05:40:42;10.02;;;9.18;;
3101;SDS011;1561;42.666;23.392;2022-09-14T05:43:09;14.85;;;11.18;;
3101;SDS011;1561;42.666;23.392;2022-09-14T05:45:37;14.70;;;9.27;;
3101;SDS011;1561;42.666;23.392;2022-09-14T05:48:07;24.77;;;18.52;;
3101;SDS011;1561;42.666;23.392;2022-09-14T05:50:35;14.20;;;12.23;;
3101;SDS011;1561;42.666;23.392;2022-09-14T05:53:04;10.93;;;9.93;;
3101;SDS011;1561;42.666;23.392;2022-09-14T05:55:33;9.90;;;8.93;;
3101;SDS011;1561;42.666;23.392;2022-09-14T05:57:59;13.60;;;11.85;;
3101;SDS011;1561;42.666;23.392;2022-09-14T06:00:28;10.98;;;10.07;;
3101;SDS011;1561;42.666;23.392;2022-09-14T06:02:57;11.70;;;10.48;;
3101;SDS011;1561;42.666;23.392;2022-09-14T06:05:32;12.77;;;10.77;;
3101;SDS011;1561;42.666;23.392;2022-09-14T06:07:59;17.85;;;10.68;;
3101;SDS011;1561;42.666;23.392;2022-09-14T06:10:27;13.48;;;10.35;;
3101;SDS011;1561;42.666;23.392;2022-09-14T06:12:55;12.77;;;10.93;;
3101;SDS011;1561;42.666;23.392;2022-09-14T06:15:24;12.77;;;11.25;;
3101;SDS011;1561;42.666;23.392;2022-09-14T06:17:52;13.98;;;10.85;;
3101;SDS011;1561;42.666;23.392;2022-09-14T06:20:20;17.20;;;10.50;;
3101;SDS011;1561;42.666;23.392;2022-09-14T06:22:52;13.75;;;9.90;;
3101;SDS011;1561;42.666;23.392;2022-09-14T06:25:18;11.95;;;10.77;;
3101;SDS011;1561;42.666;23.392;2022-09-14T06:27:46;10.38;;;9.38;;
3101;SDS011;1561;42.666;23.392;2022-09-14T06:30:16;11.85;;;10.65;;
3101;SDS011;1561;42.666;23.392;2022-09-14T06:32:43;17.83;;;12.60;;
3101;SDS011;1561;42.666;23.392;2022-09-14T06:35:09;12.82;;;10.02;;
3101;SDS011;1561;42.666;23.392;2022-09-14T06:37:41;9.98;;;8.98;;
3101;SDS011;1561;42.666;23.392;2022-09-14T06:40:12;9.45;;;7.55;;
3101;SDS011;1561;42.666;23.392;2022-09-14T06:42:43;9.10;;;8.40;;
3101;SDS011;1561;42.666;23.392;2022-09-14T06:45:09;9.13;;;8.00;;
3101;SDS011;1561;42.666;23.392;2022-09-14T06:47:37;8.60;;;7.10;;
3101;SDS011;1561;42.666;23.392;2022-09-14T06:50:04;8.60;;;7.72;;
3101;SDS011;1561;42.666;23.392;2022-09-14T06:52:34;12.77;;;9.60;;
3101;SDS011;1561;42.666;23.392;2022-09-14T06:55:02;7.90;;;7.30;;
3101;SDS011;1561;42.666;23.392;2022-09-14T06:57:31;7.90;;;7.10;;
3101;SDS011;1561;42.666;23.392;2022-09-14T06:59:59;10.23;;;9.23;;
3101;SDS011;1561;42.666;23.392;2022-09-14T07:02:28;9.98;;;6.97;;
3101;SDS011;1561;42.666;23.392;2022-09-14T07:05:01;8.07;;;7.38;;
3101;SDS011;1561;42.666;23.392;2022-09-14T07:07:31;6.93;;;6.43;;
3101;SDS011;1561;42.666;23.392;2022-09-14T07:10:01;8.30;;;6.72;;
3101;SDS011;1561;42.666;23.392;2022-09-14T07:12:28;7.05;;;6.50;;
3101;SDS011;1561;42.666;23.392;2022-09-14T07:14:59;6.47;;;5.97;;
3101;SDS011;1561;42.666;23.392;2022-09-14T07:17:28;7.85;;;7.07;;
3101;SDS011;1561;42.666;23.392;2022-09-14T07:19:57;7.18;;;6.53;;
3101;SDS011;1561;42.666;23.392;2022-09-14T07:22:25;8.75;;;8.00;;
3101;SDS011;1561;42.666;23.392;2022-09-14T07:24:58;8.43;;;7.20;;
3101;SDS011;1561;42.666;23.392;2022-09-14T07:27:25;8.50;;;7.70;;
3101;SDS011;1561;42.666;23.392;2022-09-14T07:29:55;8.63;;;7.82;;
3101;SDS011;1561;42.666;23.392;2022-09-14T07:32:25;8.38;;;6.95;;
3101;SDS011;1561;42.666;23.392;2022-09-14T07:34:56;16.42;;;6.95;;
3101;SDS011;1561;42.666;23.392;2022-09-14T07:37:30;8.35;;;6.75;;
3101;SDS011;1561;42.666;23.392;2022-09-14T07:39:58;8.48;;;7.10;;
3101;SDS011;1561;42.666;23.392;2022-09-14T07:42:25;7.40;;;6.80;;
3101;SDS011;1561;42.666;23.392;2022-09-14T07:44:54;7.97;;;6.35;;
3101;SDS011;1561;42.666;23.392;2022-09-14T07:47:26;6.13;;;5.53;;
3101;SDS011;1561;42.666;23.392;2022-09-14T07:49:54;7.22;;;6.43;;
3101;SDS011;1561;42.666;23.392;2022-09-14T07:52:22;6.97;;;6.38;;
3101;SDS011;1561;42.666;23.392;2022-09-14T07:54:50;6.38;;;5.88;;
3101;SDS011;1561;42.666;23.392;2022-09-14T07:57:22;10.60;;;5.75;;
3101;SDS011;1561;42.666;23.392;2022-09-14T07:59:51;6.68;;;6.10;;
3101;SDS011;1561;42.666;23.392;2022-09-14T08:02:19;6.70;;;6.00;;
3101;SDS011;1561;42.666;23.392;2022-09-14T08:04:51;7.10;;;6.43;;
3101;SDS011;1561;42.666;23.392;2022-09-14T08:07:19;7.32;;;5.88;;
3101;SDS011;1561;42.666;23.392;2022-09-14T08:09:48;5.97;;;5.45;;
3101;SDS011;1561;42.666;23.392;2022-09-14T08:12:17;6.57;;;5.97;;
3101;SDS011;1561;42.666;23.392;2022-09-14T08:14:44;10.75;;;5.60;;
3101;SDS011;1561;42.666;23.392;2022-09-14T08:17:15;6.28;;;5.68;;
3101;SDS011;1561;42.666;23.392;2022-09-14T08:19:42;6.15;;;5.55;;
3101;SDS011;1561;42.666;23.392;2022-09-14T08:22:11;8.45;;;6.03;;
3101;SDS011;1561;42.666;23.392;2022-09-14T08:24:43;6.00;;;5.60;;
3101;SDS011;1561;42.666;23.392;2022-09-14T08:27:11;8.38;;;6.07;;
3101;SDS011;1561;42.666;23.392;2022-09-14T08:29:38;6.28;;;5.78;;
3101;SDS011;1561;42.666;23.392;2022-09-14T08:32:06;6.72;;;5.90;;
3101;SDS011;1561;42.666;23.392;2022-09-14T08:34:33;5.93;;;5.43;;
3101;SDS011;1561;42.666;23.392;2022-09-14T08:37:01;7.78;;;5.72;;
3101;SDS011;1561;42.666;23.392;2022-09-14T08:39:30;8.60;;;7.22;;
3101;SDS011;1561;42.666;23.392;2022-09-14T08:41:57;15.52;;;7.38;;
3101;SDS011;1561;42.666;23.392;2022-09-14T08:44:27;8.13;;;7.40;;
3101;SDS011;1561;42.666;23.392;2022-09-14T08:46:57;7.20;;;5.93;;
3101;SDS011;1561;42.666;23.392;2022-09-14T08:49:43;7.30;;;5.75;;
3101;SDS011;1561;42.666;23.392;2022-09-14T08:52:18;10.77;;;6.45;;
3101;SDS011;1561;42.666;23.392;2022-09-14T08:54:53;8.27;;;5.57;;
3101;SDS011;1561;42.666;23.392;2022-09-14T08:57:25;12.70;;;8.80;;
3101;SDS011;1561;42.666;23.392;2022-09-14T09:00:02;7.72;;;5.90;;
3101;SDS011;1561;42.666;23.392;2022-09-14T09:02:41;6.88;;;6.18;;
3101;SDS011;1561;42.666;23.392;2022-09-14T09:05:22;10.13;;;6.45;;
3101;SDS011;1561;42.666;23.392;2022-09-14T09:08:00;7.47;;;6.88;;
3101;SDS011;1561;42.666;23.392;2022-09-14T09:10:37;9.80;;;7.15;;
3101;SDS011;1561;42.666;23.392;2022-09-14T09:13:11;6.78;;;6.18;;
3101;SDS011;1561;42.666;23.392;2022-09-14T09:15:44;9.10;;;6.40;;
3101;SDS011;1561;42.666;23.392;2022-09-14T09:18:16;6.53;;;6.03;;
3101;SDS011;1561;42.666;23.392;2022-09-14T09:20:49;6.72;;;6.13;;
3101;SDS011;1561;42.666;23.392;2022-09-14T09:23:25;6.68;;;6.07;;
3101;SDS011;1561;42.666;23.392;2022-09-14T09:25:59;6.68;;;5.80;;
3101;SDS011;1561;42.666;23.392;2022-09-14T09:28:31;8.57;;;6.78;;
3101;SDS011;1561;42.666;23.392;2022-09-14T09:31:04;7.05;;;6.45;;
3101;SDS011;1561;42.666;23.392;2022-09-14T09:33:32;7.43;;;6.05;;
3101;SDS011;1561;42.666;23.392;2022-09-14T09:36:04;8.68;;;6.68;;
3101;SDS011;1561;42.666;23.392;2022-09-14T09:38:39;15.18;;;13.18;;
3101;SDS011;1561;42.666;23.392;2022-09-14T09:41:12;8.85;;;5.90;;
3101;SDS011;1561;42.666;23.392;2022-09-14T09:43:59;7.20;;;6.38;;
3101;SDS011;1561;42.666;23.392;2022-09-14T09:46:27;6.28;;;5.65;;
3101;SDS011;1561;42.666;23.392;2022-09-14T09:49:01;6.20;;;5.68;;
3101;SDS011;1561;42.666;23.392;2022-09-14T09:51:32;6.78;;;6.10;;
3101;SDS011;1561;42.666;23.392;2022-09-14T09:54:04;7.35;;;5.85;;
3101;SDS011;1561;42.666;23.392;2022-09-14T09:56:39;9.80;;;6.72;;
3101;SDS011;1561;42.666;23.392;2022-09-14T09:59:20;7.47;;;6.05;;
3101;SDS011;1561;42.666;23.392;2022-09-14T10:01:53;5.95;;;5.45;;
3101;SDS011;1561;42.666;23.392;2022-09-14T10:04:22;6.88;;;5.90;;
3101;SDS011;1561;42.666;23.392;2022-09-14T10:07:01;7.13;;;6.00;;
3101;SDS011;1561;42.666;23.392;2022-09-14T10:09:30;8.48;;;6.45;;
3101;SDS011;1561;42.666;23.392;2022-09-14T10:12:10;12.35;;;6.72;;
3101;SDS011;1561;42.666;23.392;2022-09-14T10:14:41;8.00;;;6.78;;
3101;SDS011;1561;42.666;23.392;2022-09-14T10:17:14;6.25;;;5.65;;
3101;SDS011;1561;42.666;23.392;2022-09-14T10:19:45;6.70;;;6.10;;
3101;SDS011;1561;42.666;23.392;2022-09-14T10:22:16;7.18;;;5.93;;
3101;SDS011;1561;42.666;23.392;2022-09-14T10:24:52;6.95;;;6.25;;
3101;SDS011;1561;42.666;23.392;2022-09-14T10:27:34;7.72;;;5.82;;
3101;SDS011;1561;42.666;23.392;2022-09-14T10:30:17;6.32;;;5.85;;
3101;SDS011;1561;42.666;23.392;2022-09-14T10:32:51;9.80;;;5.10;;
3101;SDS011;1561;42.666;23.392;2022-09-14T10:35:34;6.90;;;5.65;;
3101;SDS011;1561;42.666;23.392;2022-09-14T10:41:11;5.60;;;5.10;;
3101;SDS011;1561;42.666;23.392;2022-09-14T10:44:47;6.15;;;5.40;;
3101;SDS011;1561;42.666;23.392;2022-09-14T10:47:39;6.68;;;5.95;;
3101;SDS011;1561;42.666;23.392;2022-09-14T10:50:37;8.68;;;7.10;;
3101;SDS011;1561;42.666;23.392;2022-09-14T10:53:20;9.23;;;6.45;;
3101;SDS011;1561;42.666;23.392;2022-09-14T10:59:26;6.15;;;5.55;;
3101;SDS011;1561;42.666;23.392;2022-09-14T11:02:22;6.55;;;5.30;;
3101;SDS011;1561;42.666;23.392;2022-09-14T11:05:14;5.75;;;5.22;;
3101;SDS011;1561;42.666;23.392;2022-09-14T11:07:54;5.47;;;5.07;;
3101;SDS011;1561;42.666;23.392;2022-09-14T11:10:44;6.32;;;5.70;;
3101;SDS011;1561;42.666;23.392;2022-09-14T11:13:26;9.18;;;5.63;;
3101;SDS011;1561;42.666;23.392;2022-09-14T11:16:08;6.10;;;5.03;;
3101;SDS011;1561;42.666;23.392;2022-09-14T11:18:52;15.65;;;4.82;;
3101;SDS011;1561;42.666;23.392;2022-09-14T11:21:30;8.15;;;5.07;;
3101;SDS011;1561;42.666;23.392;2022-09-14T11:24:10;6.20;;;5.60;;
3101;SDS011;1561;42.666;23.392;2022-09-14T11:26:43;7.70;;;5.72;;
3101;SDS011;1561;42.666;23.392;2022-09-14T11:29:21;5.43;;;4.80;;
3101;SDS011;1561;42.666;23.392;2022-09-14T11:31:54;7.75;;;5.80;;
3101;SDS011;1561;42.666;23.392;2022-09-14T11:34:33;5.00;;;4.60;;
3101;SDS011;1561;42.666;23.392;2022-09-14T11:37:09;6.75;;;5.07;;
3101;SDS011;1561;42.666;23.392;2022-09-14T11:39:41;7.80;;;5.15;;
3101;SDS011;1561;42.666;23.392;2022-09-14T11:42:17;5.82;;;5.20;;
3101;SDS011;1561;42.666;23.392;2022-09-14T11:44:49;4.97;;;4.50;;
3101;SDS011;1561;42.666;23.392;2022-09-14T11:47:21;7.22;;;4.30;;
3101;SDS011;1561;42.666;23.392;2022-09-14T11:49:54;5.50;;;4.50;;
3101;SDS011;1561;42.666;23.392;2022-09-14T11:52:30;4.57;;;3.75;;
3101;SDS011;1561;42.666;23.392;2022-09-14T11:55:00;3.20;;;3.00;;
3101;SDS011;1561;42.666;23.392;2022-09-14T11:57:39;8.20;;;4.13;;
3101;SDS011;1561;42.666;23.392;2022-09-14T12:00:41;3.38;;;3.17;;
3101;SDS011;1561;42.666;23.392;2022-09-14T12:03:45;2.88;;;2.67;;
3101;SDS011;1561;42.666;23.392;2022-09-14T12:12:28;6.97;;;3.42;;
3101;SDS011;1561;42.666;23.392;2022-09-14T12:15:01;5.07;;;3.08;;
3101;SDS011;1561;42.666;23.392;2022-09-14T12:17:43;3.22;;;2.97;;
3101;SDS011;1561;42.666;23.392;2022-09-14T12:23:21;3.28;;;2.70;;
3101;SDS011;1561;42.666;23.392;2022-09-14T12:25:55;2.88;;;2.72;;
3101;SDS011;1561;42.666;23.392;2022-09-14T12:28:52;2.67;;;2.47;;
3101;SDS011;1561;42.666;23.392;2022-09-14T12:31:30;16.80;;;9.82;;
3101;SDS011;1561;42.666;23.392;2022-09-14T12:34:18;3.20;;;2.97;;
3101;SDS011;1561;42.666;23.392;2022-09-14T12:49:14;4.63;;;3.63;;
3101;SDS011;1561;42.666;23.392;2022-09-14T12:51:54;2.90;;;2.70;;
3101;SDS011;1561;42.666;23.392;2022-09-14T12:54:27;2.88;;;2.67;;
3101;SDS011;1561;42.666;23.392;2022-09-14T13:00:13;2.70;;;2.50;;
3101;SDS011;1561;42.666;23.392;2022-09-14T13:03:13;3.95;;;2.90;;
3101;SDS011;1561;42.666;23.392;2022-09-14T13:06:09;2.67;;;2.47;;
3101;SDS011;1561;42.666;23.392;2022-09-14T13:08:53;4.90;;;3.00;;
3101;SDS011;1561;42.666;23.392;2022-09-14T13:11:34;3.42;;;2.78;;
3101;SDS011;1561;42.666;23.392;2022-09-14T13:14:11;2.83;;;2.63;;
3101;SDS011;1561;42.666;23.392;2022-09-14T13:16:46;2.80;;;2.60;;
3101;SDS011;1561;42.666;23.392;2022-09-14T13:19:22;2.60;;;2.40;;
3101;SDS011;1561;42.666;23.392;2022-09-14T13:21:53;2.70;;;2.60;;
3101;SDS011;1561;42.666;23.392;2022-09-14T13:24:25;2.85;;;2.55;;
3101;SDS011;1561;42.666;23.392;2022-09-14T13:26:57;5.40;;;3.55;;
3101;SDS011;1561;42.666;23.392;2022-09-14T13:29:27;3.30;;;3.00;;
3101;SDS011;1561;42.666;23.392;2022-09-14T13:31:56;2.83;;;2.67;;
3101;SDS011;1561;42.666;23.392;2022-09-14T13:34:27;3.47;;;3.22;;
3101;SDS011;1561;42.666;23.392;2022-09-14T13:36:57;2.70;;;2.50;;
3101;SDS011;1561;42.666;23.392;2022-09-14T13:39:27;4.43;;;2.78;;
3101;SDS011;1561;42.666;23.392;2022-09-14T13:41:57;3.28;;;2.70;;
3101;SDS011;1561;42.666;23.392;2022-09-14T13:47:20;4.10;;;3.65;;
3101;SDS011;1561;42.666;23.392;2022-09-14T13:50:04;3.63;;;3.38;;
3101;SDS011;1561;42.666;23.392;2022-09-14T13:52:41;2.90;;;2.70;;
3101;SDS011;1561;42.666;23.392;2022-09-14T13:55:27;4.75;;;2.70;;
3101;SDS011;1561;42.666;23.392;2022-09-14T14:01:02;3.53;;;3.22;;
3101;SDS011;1561;42.666;23.392;2022-09-14T14:03:40;4.97;;;4.18;;
3101;SDS011;1561;42.666;23.392;2022-09-14T14:06:24;4.53;;;2.95;;
3101;SDS011;1561;42.666;23.392;2022-09-14T14:08:55;2.58;;;2.38;;
3101;SDS011;1561;42.666;23.392;2022-09-14T14:11:31;2.55;;;2.45;;
3101;SDS011;1561;42.666;23.392;2022-09-14T14:14:18;2.42;;;2.25;;
3101;SDS011;1561;42.666;23.392;2022-09-14T14:20:26;5.28;;;2.70;;
3101;SDS011;1561;42.666;23.392;2022-09-14T14:22:57;5.43;;;4.93;;
3101;SDS011;1561;42.666;23.392;2022-09-14T14:25:27;2.80;;;2.60;;
3101;SDS011;1561;42.666;23.392;2022-09-14T14:28:03;4.45;;;3.63;;
3101;SDS011;1561;42.666;23.392;2022-09-14T14:30:39;3.75;;;3.20;;
3101;SDS011;1561;42.666;23.392;2022-09-14T14:33:13;3.42;;;3.13;;
3101;SDS011;1561;42.666;23.392;2022-09-14T14:35:51;3.15;;;2.95;;
3101;SDS011;1561;42.666;23.392;2022-09-14T14:38:33;3.40;;;3.10;;
3101;SDS011;1561;42.666;23.392;2022-09-14T14:41:06;3.97;;;3.17;;
3101;SDS011;1561;42.666;23.392;2022-09-14T14:43:44;3.00;;;2.75;;
3101;SDS011;1561;42.666;23.392;2022-09-14T14:46:17;4.30;;;2.60;;
3101;SDS011;1561;42.666;23.392;2022-09-14T14:48:47;3.58;;;2.60;;
3101;SDS011;1561;42.666;23.392;2022-09-14T14:51:16;3.65;;;3.35;;
3101;SDS011;1561;42.666;23.392;2022-09-14T14:53:44;3.45;;;2.60;;
3101;SDS011;1561;42.666;23.392;2022-09-14T14:56:11;4.32;;;3.10;;
3101;SDS011;1561;42.666;23.392;2022-09-14T14:58:42;7.18;;;5.30;;
3101;SDS011;1561;42.666;23.392;2022-09-14T15:01:11;2.97;;;2.80;;
3101;SDS011;1561;42.666;23.392;2022-09-14T15:03:40;3.80;;;3.30;;
3101;SDS011;1561;42.666;23.392;2022-09-14T15:06:11;3.90;;;3.60;;
3101;SDS011;1561;42.666;23.392;2022-09-14T15:08:46;3.65;;;2.90;;
3101;SDS011;1561;42.666;23.392;2022-09-14T15:11:17;2.28;;;2.17;;
3101;SDS011;1561;42.666;23.392;2022-09-14T15:13:44;5.22;;;3.58;;
3101;SDS011;1561;42.666;23.392;2022-09-14T15:16:14;2.30;;;2.20;;
3101;SDS011;1561;42.666;23.392;2022-09-14T15:18:43;5.78;;;2.80;;
3101;SDS011;1561;42.666;23.392;2022-09-14T15:21:11;2.92;;;2.72;;
3101;SDS011;1561;42.666;23.392;2022-09-14T15:23:39;3.55;;;2.65;;
3101;SDS011;1561;42.666;23.392;2022-09-14T15:26:11;7.05;;;4.68;;
3101;SDS011;1561;42.666;23.392;2022-09-14T15:28:38;5.15;;;3.40;;
3101;SDS011;1561;42.666;23.392;2022-09-14T15:31:07;2.40;;;2.30;;
3101;SDS011;1561;42.666;23.392;2022-09-14T15:33:35;3.75;;;2.80;;
3101;SDS011;1561;42.666;23.392;2022-09-14T15:36:03;3.20;;;2.90;;
3101;SDS011;1561;42.666;23.392;2022-09-14T15:38:33;4.00;;;3.50;;
3101;SDS011;1561;42.666;23.392;2022-09-14T15:41:01;5.00;;;3.08;;
3101;SDS011;1561;42.666;23.392;2022-09-14T15:43:30;4.85;;;3.47;;
3101;SDS011;1561;42.666;23.392;2022-09-14T15:46:00;5.82;;;4.72;;
3101;SDS011;1561;42.666;23.392;2022-09-14T15:48:29;11.73;;;6.40;;
3101;SDS011;1561;42.666;23.392;2022-09-14T15:50:56;11.15;;;5.22;;
3101;SDS011;1561;42.666;23.392;2022-09-14T15:53:30;4.50;;;4.10;;
3101;SDS011;1561;42.666;23.392;2022-09-14T15:55:57;6.10;;;4.53;;
3101;SDS011;1561;42.666;23.392;2022-09-14T15:58:24;4.28;;;3.88;;
3101;SDS011;1561;42.666;23.392;2022-09-14T16:00:53;3.72;;;3.42;;
3101;SDS011;1561;42.666;23.392;2022-09-14T16:03:28;12.43;;;9.43;;
3101;SDS011;1561;42.666;23.392;2022-09-14T16:05:58;7.60;;;5.90;;
3101;SDS011;1561;42.666;23.392;2022-09-14T16:08:27;3.55;;;3.25;;
3101;SDS011;1561;42.666;23.392;2022-09-14T16:10:58;4.95;;;3.00;;
3101;SDS011;1561;42.666;23.392;2022-09-14T16:13:28;5.05;;;3.67;;
3101;SDS011;1561;42.666;23.392;2022-09-14T16:16:09;4.20;;;3.30;;